Time;durP1;ratioP1;P1;durP2;ratioP2;P2;SDS_P1;SDS_P2;PMS_P1;PMS_P2;Temp;Humidity;BMP_temperature;BMP_pressure;BME280_temperature;BME280_humidity;BME280_pressure;Samples;Min_cycle;Max_cycle;Signal;HPM_P1;HPM_P2
2022/04/26 03:37:56;;;;;;;25.05;21.20;;;7.90;99.90;;;;;;5053185;28;20140;-55
2022/04/26 03:40:40;;;;;;;27.90;23.48;;;7.90;99.90;;;;;;5052994;28;20035;-52
2022/04/26 03:43:24;;;;;;;28.70;23.65;;;7.90;99.90;;;;;;5050071;28;20036;-54
2022/04/26 03:46:09;;;;;;;31.75;23.92;;;7.90;99.90;;;;;;5052937;28;20102;-55
2022/04/26 03:48:53;;;;;;;28.30;24.67;;;7.90;99.90;;;;;;5038087;28;20377;-50
2022/04/26 03:51:37;;;;;;;30.38;23.85;;;7.90;99.90;;;;;;5053055;28;20158;-52
2022/04/26 03:54:22;;;;;;;29.88;23.88;;;7.90;99.90;;;;;;5037559;28;20040;-51
2022/04/26 03:57:07;;;;;;;31.08;25.65;;;7.80;99.90;;;;;;5052161;28;20068;-51
2022/04/26 03:59:51;;;;;;;31.80;27.75;;;7.80;99.90;;;;;;5038290;28;20082;-54
2022/04/26 04:02:35;;;;;;;34.05;25.75;;;7.80;99.90;;;;;;5052499;28;20116;-56
2022/04/26 04:05:21;;;;;;;34.58;26.35;;;7.70;99.90;;;;;;5045146;28;20059;-52
2022/04/26 04:08:06;;;;;;;33.28;25.30;;;7.60;99.90;;;;;;5045102;28;20055;-53
2022/04/26 04:10:50;;;;;;;54.25;37.53;;;7.50;99.90;;;;;;5057868;28;20071;-57
2022/04/26 04:13:34;;;;;;;37.28;27.33;;;7.60;99.90;;;;;;5037138;28;20063;-51
2022/04/26 04:16:19;;;;;;;33.43;26.33;;;7.60;99.90;;;;;;5052913;28;20028;-50
2022/04/26 04:19:18;;;;;;;32.42;25.20;;;7.60;99.90;;;;;;5052200;28;20401;-54
2022/04/26 04:22:02;;;;;;;35.50;25.60;;;7.60;99.90;;;;;;5039369;28;20530;-57
2022/04/26 04:24:46;;;;;;;29.35;23.70;;;7.70;99.90;;;;;;5052669;28;20044;-54
2022/04/26 04:27:31;;;;;;;32.70;25.40;;;7.80;99.90;;;;;;5052125;28;20114;-56
2022/04/26 04:30:15;;;;;;;34.20;25.85;;;7.80;99.90;;;;;;5052372;28;20043;-55
2022/04/26 04:32:59;;;;;;;31.17;25.23;;;7.70;99.90;;;;;;5036726;28;20040;-51
2022/04/26 04:35:43;;;;;;;36.47;26.30;;;7.70;99.90;;;;;;5036977;28;20080;-50
2022/04/26 04:38:28;;;;;;;33.75;26.10;;;7.70;99.90;;;;;;5051865;28;20397;-55
2022/04/26 04:41:12;;;;;;;36.15;25.20;;;7.70;99.90;;;;;;5032855;28;20045;-53
2022/04/26 04:43:56;;;;;;;36.27;26.47;;;7.70;99.90;;;;;;5036581;28;20060;-54
2022/04/26 04:46:40;;;;;;;30.15;24.10;;;7.60;99.90;;;;;;5036882;28;20283;-54
2022/04/26 04:49:24;;;;;;;31.08;24.42;;;7.80;99.90;;;;;;5052236;28;20044;-57
2022/04/26 04:52:08;;;;;;;30.02;23.45;;;7.80;99.90;;;;;;5051977;28;20043;-55
2022/04/26 04:54:52;;;;;;;32.23;25.30;;;7.80;99.90;;;;;;5036037;28;20120;-56
2022/04/26 04:57:36;;;;;;;31.75;23.40;;;7.80;99.90;;;;;;5037072;28;20040;-53
2022/04/26 05:00:20;;;;;;;30.10;24.57;;;7.70;99.90;;;;;;5051612;28;20044;-53
2022/04/26 05:03:04;;;;;;;34.20;24.63;;;7.70;99.90;;;;;;5051877;28;20416;-55
2022/04/26 05:05:48;;;;;;;30.30;24.67;;;7.80;99.90;;;;;;5051611;28;20095;-51
2022/04/26 05:08:33;;;;;;;31.52;24.67;;;7.80;99.90;;;;;;5051750;28;20052;-55
2022/04/26 05:11:17;;;;;;;;;;;7.70;99.90;;;;;;5052421;28;20098;-55
2022/04/26 05:14:02;;;;;;;32.15;24.17;;;7.70;99.90;;;;;;5052197;28;19954;-54
2022/04/26 05:16:47;;;;;;;31.40;25.05;;;7.70;99.90;;;;;;5036629;28;20033;-54
2022/04/26 05:19:30;;;;;;;30.77;24.48;;;7.90;99.90;;;;;;5051249;28;20040;-54
2022/04/26 05:22:14;;;;;;;29.43;23.97;;;7.90;99.90;;;;;;5051477;28;20481;-55
2022/04/26 05:24:59;;;;;;;34.75;25.75;;;8.00;99.90;;;;;;5036389;28;20055;-52
2022/04/26 05:27:43;;;;;;;31.60;24.55;;;8.10;99.90;;;;;;5031811;28;20044;-52
2022/04/26 05:30:27;;;;;;;35.03;24.15;;;8.20;99.90;;;;;;5032860;28;20048;-54
2022/04/26 05:33:11;;;;;;;31.88;24.13;;;8.20;99.90;;;;;;5051485;28;20040;-54
2022/04/26 05:35:55;;;;;;;29.60;23.48;;;8.30;99.90;;;;;;5029744;28;20345;-53
2022/04/26 05:38:39;;;;;;;33.20;25.63;;;8.30;99.90;;;;;;5051697;28;20121;-54
2022/04/26 05:41:23;;;;;;;32.60;25.48;;;8.40;99.90;;;;;;5051473;28;20044;-55
2022/04/26 05:44:07;;;;;;;34.80;25.20;;;8.40;99.90;;;;;;5051409;28;20086;-54
2022/04/26 05:46:51;;;;;;;27.50;23.23;;;8.50;99.90;;;;;;5050994;28;20105;-56
2022/04/26 05:49:35;;;;;;;33.20;25.60;;;8.60;99.90;;;;;;5037197;28;20068;-55
2022/04/26 05:52:19;;;;;;;38.30;26.67;;;8.70;99.90;;;;;;5051466;28;20091;-56
2022/04/26 05:55:04;;;;;;;35.13;26.38;;;8.80;99.90;;;;;;5051927;28;20040;-55
2022/04/26 05:57:48;;;;;;;40.55;27.67;;;8.90;99.90;;;;;;5051015;28;20040;-53
2022/04/26 06:00:33;;;;;;;34.67;26.10;;;8.90;99.90;;;;;;5052171;28;20072;-53
2022/04/26 06:03:17;;;;;;;33.03;25.60;;;9.00;99.90;;;;;;5042213;28;20048;-53
2022/04/26 06:06:01;;;;;;;35.83;26.67;;;9.00;99.90;;;;;;5050508;28;20083;-54
2022/04/26 06:08:45;;;;;;;32.65;26.95;;;9.20;99.90;;;;;;5050985;28;20047;-54
2022/04/26 06:11:31;;;;;;;32.80;27.00;;;9.20;99.90;;;;;;5051261;28;20044;-54
2022/04/26 06:14:15;;;;;;;41.72;28.63;;;9.30;99.90;;;;;;5050234;28;20066;-51
2022/04/26 06:16:59;;;;;;;35.08;28.42;;;9.30;99.90;;;;;;5050507;28;20055;-52
2022/04/26 06:19:43;;;;;;;38.63;28.23;;;9.30;99.90;;;;;;5035480;28;20044;-56
2022/04/26 06:22:27;;;;;;;41.97;30.87;;;9.40;99.90;;;;;;5050568;28;20087;-55
2022/04/26 06:25:11;;;;;;;46.50;30.50;;;9.50;99.90;;;;;;5050676;28;20051;-55
2022/04/26 06:27:55;;;;;;;44.63;33.08;;;9.60;99.90;;;;;;5050860;28;20457;-51
2022/04/26 06:30:39;;;;;;;41.15;30.83;;;9.80;99.90;;;;;;5036624;28;20043;-55
2022/04/26 06:33:24;;;;;;;60.53;35.03;;;9.80;99.90;;;;;;5054287;28;20040;-55
2022/04/26 06:36:08;;;;;;;44.33;33.45;;;9.90;99.90;;;;;;5052957;28;20036;-57
2022/04/26 06:38:52;;;;;;;42.22;34.03;;;9.80;99.90;;;;;;5054096;28;20040;-53
2022/04/26 06:41:36;;;;;;;66.32;47.20;;;9.80;99.90;;;;;;5054103;28;20036;-55
2022/04/26 06:44:20;;;;;;;50.13;34.47;;;9.80;99.90;;;;;;5053547;28;20032;-54
2022/04/26 06:47:04;;;;;;;42.07;34.13;;;9.60;99.90;;;;;;5053418;28;20075;-53
2022/04/26 06:49:49;;;;;;;40.53;33.15;;;9.70;99.90;;;;;;5054457;28;20259;-56
2022/04/26 06:52:33;;;;;;;48.70;38.03;;;9.90;99.90;;;;;;5053794;28;20036;-54
2022/04/26 06:55:17;;;;;;;46.88;38.70;;;10.10;99.90;;;;;;5053785;28;20037;-54
2022/04/26 06:58:01;;;;;;;44.63;36.72;;;10.00;99.90;;;;;;5054740;28;20083;-58
2022/04/26 07:00:46;;;;;;;51.77;38.73;;;10.10;99.90;;;;;;5054476;28;20646;-53
2022/04/26 07:03:31;;;;;;;53.60;37.65;;;10.10;99.90;;;;;;5053824;28;20051;-55
2022/04/26 07:06:15;;;;;;;47.28;38.00;;;10.20;99.90;;;;;;5054192;28;20059;-54
2022/04/26 07:09:01;;;;;;;44.80;35.23;;;10.30;99.90;;;;;;5056668;28;20090;-51
2022/04/26 07:11:46;;;;;;;48.03;39.13;;;10.40;99.90;;;;;;5039219;28;20075;-55
2022/04/26 07:14:30;;;;;;;55.85;40.72;;;10.60;99.90;;;;;;5053827;28;20787;-55
2022/04/26 07:17:17;;;;;;;48.00;37.63;;;10.60;99.90;;;;;;5047795;28;20033;-56
2022/04/26 07:20:01;;;;;;;48.95;37.35;;;10.80;99.90;;;;;;5026899;28;20032;-57
2022/04/26 07:22:45;;;;;;;47.13;37.90;;;10.90;99.90;;;;;;5050861;28;20048;-55
2022/04/26 07:25:29;;;;;;;48.77;38.43;;;11.10;99.90;;;;;;5047402;28;20106;-54
2022/04/26 07:28:13;;;;;;;48.70;38.05;;;11.20;99.90;;;;;;5036978;28;20044;-56
2022/04/26 07:30:57;;;;;;;43.13;34.63;;;11.30;99.90;;;;;;5052618;28;20043;-53
2022/04/26 07:36:44;;;;;;;58.10;41.08;;;11.50;99.90;;;;;;5055453;28;20039;-56
2022/04/26 07:39:30;;;;;;;45.60;36.85;;;11.50;99.90;;;;;;5048271;28;20110;-55
2022/04/26 07:42:14;;;;;;;43.00;36.30;;;11.50;99.90;;;;;;5044012;28;20044;-53
2022/04/26 07:44:59;;;;;;;63.85;40.28;;;11.60;99.90;;;;;;5053509;28;20066;-55
2022/04/26 07:47:46;;;;;;;43.85;35.35;;;11.50;99.90;;;;;;5058991;28;20043;-58
2022/04/26 07:50:30;;;;;;;47.92;36.95;;;11.50;99.90;;;;;;5053449;28;20110;-49
2022/04/26 07:53:15;;;;;;;47.63;38.03;;;11.50;99.90;;;;;;5039126;28;20546;-52
2022/04/26 07:55:59;;;;;;;54.47;36.20;;;11.50;99.90;;;;;;5051496;28;20374;-58
2022/04/26 07:58:43;;;;;;;44.13;36.93;;;11.40;99.90;;;;;;5056650;28;20158;-50
2022/04/26 08:01:27;;;;;;;42.78;34.97;;;11.70;99.90;;;;;;5042985;28;20270;-53
2022/04/26 08:04:11;;;;;;;44.65;35.60;;;11.70;99.90;;;;;;5053110;28;20106;-55
2022/04/26 08:06:55;;;;;;;38.47;32.60;;;11.70;99.90;;;;;;5038194;28;20044;-53
2022/04/26 08:09:39;;;;;;;42.20;34.50;;;11.70;99.90;;;;;;5053255;28;20432;-53
2022/04/26 08:12:24;;;;;;;42.15;35.22;;;11.80;99.90;;;;;;5052496;28;20273;-54
2022/04/26 08:15:10;;;;;;;47.43;33.10;;;11.90;99.90;;;;;;5052381;28;20507;-57
2022/04/26 08:17:54;;;;;;;44.53;33.08;;;12.10;99.90;;;;;;5036992;28;20028;-52
2022/04/26 08:20:38;;;;;;;39.80;33.73;;;12.20;99.90;;;;;;5050460;28;20032;-54
2022/04/26 08:23:23;;;;;;;39.03;31.90;;;12.30;99.90;;;;;;5035336;28;20298;-58
2022/04/26 08:29:14;;;;;;;40.00;33.42;;;12.50;99.90;;;;;;5038426;28;20043;-55
2022/04/26 08:31:58;;;;;;;45.13;35.35;;;12.60;99.90;;;;;;5052489;28;20067;-54
2022/04/26 08:34:43;;;;;;;41.47;34.23;;;12.50;99.90;;;;;;5052144;28;20467;-51
2022/04/26 08:37:27;;;;;;;44.63;35.63;;;12.60;99.90;;;;;;5046642;28;20032;-53
2022/04/26 08:40:12;;;;;;;40.95;35.50;;;12.70;99.90;;;;;;5051896;28;20043;-55
2022/04/26 08:42:59;;;;;;;42.05;34.67;;;12.80;99.90;;;;;;5037913;28;20512;-53
2022/04/26 08:45:46;;;;;;;41.60;33.78;;;13.00;99.90;;;;;;5052942;28;20044;-54
2022/04/26 08:51:33;;;;;;;40.00;32.72;;;13.40;99.90;;;;;;5051844;28;20106;-51
2022/04/26 08:54:17;;;;;;;36.63;31.73;;;13.40;99.90;;;;;;5040386;28;20045;-54
2022/04/26 08:57:02;;;;;;;39.73;28.77;;;13.60;99.70;;;;;;5052049;28;20432;-51
2022/04/26 08:59:49;;;;;;;34.50;27.38;;;13.60;99.30;;;;;;5051510;28;20032;-54
2022/04/26 09:02:34;;;;;;;29.33;25.67;;;13.90;98.50;;;;;;5032280;28;20516;-54
2022/04/26 09:05:18;;;;;;;28.67;24.83;;;13.90;98.60;;;;;;5040022;28;20079;-51
2022/04/26 09:08:22;;;;;;;30.25;25.13;;;14.00;97.80;;;;;;5036930;28;20359;-51
2022/04/26 09:11:20;;;;;;;30.30;25.98;;;14.20;97.80;;;;;;5036085;28;20287;-50
2022/04/26 09:14:11;;;;;;;28.42;22.58;;;14.30;97.10;;;;;;5049368;28;20049;-54
2022/04/26 09:17:07;;;;;;;23.70;20.38;;;14.50;96.50;;;;;;5015195;28;20510;-50
2022/04/26 09:19:55;;;;;;;;;;;14.60;96.10;;;;;;5049294;28;20048;-54
2022/04/26 09:22:40;;;;;;;19.88;15.15;;;14.90;95.30;;;;;;5048601;28;19928;-53
2022/04/26 09:25:24;;;;;;;22.55;15.02;;;15.10;95.00;;;;;;5059577;28;20043;-56
2022/04/26 09:28:08;;;;;;;18.00;16.17;;;15.20;93.40;;;;;;5058598;28;20052;-52
2022/04/26 09:30:52;;;;;;;19.58;15.68;;;15.30;93.30;;;;;;5052025;28;20179;-56
2022/04/26 09:33:38;;;;;;;18.77;15.48;;;15.40;93.80;;;;;;5035259;28;20467;-55
2022/04/26 09:36:25;;;;;;;18.92;16.35;;;15.70;94.90;;;;;;5051382;28;20116;-52
2022/04/26 09:39:09;;;;;;;23.77;16.88;;;15.90;93.40;;;;;;5021198;28;20033;-53
2022/04/26 09:41:53;;;;;;;22.33;17.73;;;16.10;92.60;;;;;;5051855;28;20346;-51
2022/04/26 09:44:41;;;;;;;13.13;10.38;;;16.20;92.30;;;;;;5052507;28;20043;-55
2022/04/26 09:47:36;;;;;;;14.10;10.77;;;16.20;90.50;;;;;;5052062;28;20040;-53
2022/04/26 09:50:20;;;;;;;14.27;11.25;;;16.10;85.40;;;;;;5034626;28;20040;-56
2022/04/26 09:53:05;;;;;;;16.25;10.98;;;16.20;86.30;;;;;;5037005;28;20124;-54
2022/04/26 09:55:50;;;;;;;14.45;12.95;;;16.60;84.60;;;;;;5053323;28;20404;-56
2022/04/26 09:58:38;;;;;;;16.63;11.68;;;16.70;87.40;;;;;;5038937;28;20442;-56
2022/04/26 10:01:27;;;;;;;14.00;11.27;;;16.70;87.70;;;;;;5054627;28;20036;-55
2022/04/26 10:04:20;;;;;;;16.38;12.18;;;16.70;85.60;;;;;;5043610;28;20126;-53
2022/04/26 10:07:12;;;;;;;11.00;9.88;;;16.50;84.60;;;;;;5040137;28;20040;-60
2022/04/26 10:09:56;;;;;;;11.38;9.30;;;16.20;81.50;;;;;;5024673;28;20036;-59
2022/04/26 10:12:42;;;;;;;13.98;9.73;;;15.90;83.10;;;;;;5054330;28;20435;-60
2022/04/26 10:15:26;;;;;;;11.98;9.57;;;16.00;82.00;;;;;;5039213;28;20400;-60
2022/04/26 10:18:43;;;;;;;9.95;8.50;;;16.20;80.80;;;;;;5040506;28;20039;-59
2022/04/26 10:21:28;;;;;;;12.60;8.23;;;15.90;77.80;;;;;;5038944;28;20036;-58
2022/04/26 10:24:20;;;;;;;12.05;10.85;;;15.70;79.20;;;;;;5054932;28;20503;-61
2022/04/26 10:27:25;;;;;;;13.82;11.85;;;15.80;79.60;;;;;;5055609;28;20121;-60
2022/04/26 10:30:09;;;;;;;14.40;10.60;;;15.70;81.60;;;;;;5026724;28;20032;-60
2022/04/26 10:32:54;;;;;;;13.63;11.30;;;15.80;80.40;;;;;;5055060;28;20041;-60
2022/04/26 10:35:38;;;;;;;12.85;10.32;;;15.60;80.80;;;;;;5039242;28;20099;-61
2022/04/26 10:38:25;;;;;;;14.02;11.05;;;15.70;81.60;;;;;;5039195;28;20036;-62
2022/04/26 10:41:09;;;;;;;12.38;9.95;;;16.10;81.10;;;;;;5030366;28;20400;-58
2022/04/26 10:44:12;;;;;;;11.52;10.32;;;16.30;79.70;;;;;;5054888;28;20412;-60
2022/04/26 10:47:03;;;;;;;14.25;10.57;;;16.30;79.40;;;;;;5054171;28;20094;-61
2022/04/26 10:49:51;;;;;;;10.02;8.57;;;16.40;77.00;;;;;;5040538;28;20036;-60
2022/04/26 10:52:38;;;;;;;11.48;9.20;;;16.50;75.70;;;;;;5055639;28;20400;-60
2022/04/26 10:55:26;;;;;;;13.80;9.48;;;16.50;75.30;;;;;;5054263;28;20408;-61
2022/04/26 10:58:10;;;;;;;11.65;9.63;;;16.40;76.30;;;;;;5025805;28;20060;-60
2022/04/26 11:00:54;;;;;;;10.82;8.63;;;16.50;75.40;;;;;;5054206;28;20056;-57
2022/04/26 11:03:56;;;;;;;11.50;10.30;;;16.30;76.90;;;;;;5053459;28;20450;-58
2022/04/26 11:06:42;;;;;;;9.90;8.13;;;16.30;75.10;;;;;;5052672;28;20044;-59
2022/04/26 11:09:27;;;;;;;10.15;9.13;;;16.40;75.00;;;;;;5033460;28;20092;-60
2022/04/26 11:12:11;;;;;;;11.65;9.65;;;16.60;74.60;;;;;;5031980;28;20067;-56
2022/04/26 11:15:10;;;;;;;11.02;9.02;;;16.40;75.80;;;;;;5053963;28;20197;-62
2022/04/26 11:17:55;;;;;;;12.52;9.70;;;16.00;75.20;;;;;;5036154;28;20507;-62
2022/04/26 11:20:40;;;;;;;10.10;7.82;;;15.80;75.80;;;;;;5019101;28;20041;-61
2022/04/26 11:29:53;;;;;;;12.38;9.52;;;16.30;76.60;;;;;;5053638;28;20036;-55
2022/04/26 11:32:44;;;;;;;11.07;9.15;;;16.40;75.80;;;;;;5038229;28;20335;-58
2022/04/26 11:35:29;;;;;;;11.57;8.02;;;16.50;74.90;;;;;;5053992;28;20068;-50
2022/04/26 11:38:15;;;;;;;10.10;7.65;;;16.40;72.50;;;;;;5057433;28;20055;-55
2022/04/26 11:41:01;;;;;;;12.10;7.70;;;16.70;72.10;;;;;;5038523;28;20040;-57
2022/04/26 11:43:45;;;;;;;7.47;6.28;;;17.20;71.00;;;;;;5054249;28;20094;-58
2022/04/26 11:46:30;;;;;;;7.53;6.53;;;17.50;68.80;;;;;;5052687;28;20039;-57
2022/04/26 11:49:15;;;;;;;7.03;6.30;;;17.70;68.40;;;;;;5031618;28;20045;-54
2022/04/26 11:52:00;;;;;;;7.88;6.88;;;17.40;68.50;;;;;;5046634;28;20401;-60
2022/04/26 11:54:44;;;;;;;9.73;7.10;;;17.30;68.30;;;;;;5047923;28;20059;-58
2022/04/26 11:57:29;;;;;;;7.47;6.07;;;17.50;67.80;;;;;;5037417;28;20120;-54
2022/04/26 12:00:16;;;;;;;9.55;6.43;;;17.40;67.90;;;;;;5050161;28;20397;-58
2022/04/26 12:03:02;;;;;;;9.70;6.70;;;17.50;68.00;;;;;;5030643;28;20051;-57
2022/04/26 12:05:55;;;;;;;8.00;6.65;;;17.30;66.00;;;;;;5052865;28;20031;-53
2022/04/26 12:08:41;;;;;;;7.15;6.43;;;17.10;66.70;;;;;;5052565;28;20507;-57
2022/04/26 12:11:32;;;;;;;9.38;7.32;;;17.20;66.20;;;;;;5050610;28;20040;-56
2022/04/26 12:14:21;;;;;;;6.13;5.53;;;17.40;66.70;;;;;;5051744;28;20094;-55
2022/04/26 12:17:18;;;;;;;7.70;6.60;;;17.60;65.50;;;;;;5046824;28;20081;-57
2022/04/26 12:20:09;;;;;;;10.85;6.43;;;17.70;66.10;;;;;;5052832;28;20590;-54
2022/04/26 12:22:53;;;;;;;7.82;6.18;;;17.60;64.80;;;;;;5052443;28;20029;-57
2022/04/26 12:25:38;;;;;;;7.47;6.68;;;17.80;65.50;;;;;;5052755;28;20048;-56
2022/04/26 12:28:23;;;;;;;8.30;7.03;;;17.60;65.90;;;;;;5037698;28;20044;-55
2022/04/26 12:31:31;;;;;;;8.43;6.25;;;17.60;64.50;;;;;;5053087;28;20048;-58
2022/04/26 12:34:17;;;;;;;6.30;5.70;;;17.40;63.30;;;;;;5051931;28;20047;-54
2022/04/26 12:37:15;;;;;;;9.13;5.82;;;17.60;64.00;;;;;;5033589;28;20091;-54
2022/04/26 12:40:06;;;;;;;7.00;6.03;;;18.00;64.10;;;;;;5019085;28;20511;-56
2022/04/26 12:42:54;;;;;;;7.43;6.25;;;17.80;63.50;;;;;;5053277;28;20083;-53
2022/04/26 12:45:38;;;;;;;8.32;6.90;;;18.10;62.80;;;;;;5033483;28;20614;-55
2022/04/26 12:51:27;;;;;;;7.32;5.20;;;17.90;62.40;;;;;;5052594;28;20123;-59
2022/04/26 12:54:12;;;;;;;14.55;6.00;;;18.30;61.10;;;;;;5051510;28;20581;-56
2022/04/26 12:57:01;;;;;;;7.57;5.43;;;18.80;61.00;;;;;;5051618;28;20090;-55
2022/04/26 12:59:46;;;;;;;9.32;5.68;;;18.90;59.90;;;;;;5017313;28;20040;-57
2022/04/26 13:02:31;;;;;;;8.90;7.43;;;19.20;59.50;;;;;;5020955;28;20036;-56
2022/04/26 13:05:15;;;;;;;19.23;10.70;;;19.30;60.50;;;;;;5051960;28;20101;-58
2022/04/26 13:08:00;;;;;;;;;;;19.40;60.70;;;;;;5036134;28;20067;-55
2022/04/26 13:10:47;;;;;;;15.13;13.52;;;19.10;60.30;;;;;;5052268;28;20327;-54
2022/04/26 13:13:36;;;;;;;40.78;11.27;;;18.60;59.70;;;;;;5051794;28;20043;-58
2022/04/26 13:16:20;;;;;;;8.73;6.50;;;18.30;60.90;;;;;;5052071;28;20519;-53
2022/04/26 13:19:04;;;;;;;11.13;9.95;;;17.80;60.70;;;;;;5051330;28;20036;-53
2022/04/26 13:21:48;;;;;;;13.97;11.63;;;17.50;61.40;;;;;;5036607;28;20043;-54
2022/04/26 13:24:32;;;;;;;13.23;10.50;;;17.50;62.30;;;;;;5022163;28;20524;-56
2022/04/26 13:27:16;;;;;;;10.50;8.60;;;17.60;62.80;;;;;;5051056;28;20036;-56
2022/04/26 13:30:02;;;;;;;12.32;9.52;;;17.80;62.90;;;;;;5051568;28;20094;-54
2022/04/26 13:32:47;;;;;;;7.43;5.78;;;17.70;64.20;;;;;;5035825;28;20041;-56
2022/04/26 13:35:33;;;;;;;9.43;6.43;;;17.70;63.60;;;;;;5052460;28;20040;-57
2022/04/26 13:38:19;;;;;;;8.98;6.28;;;17.70;64.60;;;;;;5054535;28;20044;-54
2022/04/26 13:41:03;;;;;;;8.32;6.03;;;17.80;63.70;;;;;;5049982;28;20562;-56
2022/04/26 13:43:48;;;;;;;14.90;12.52;;;17.70;63.90;;;;;;5043643;28;20508;-55
2022/04/26 13:46:33;;;;;;;12.10;9.05;;;17.80;63.40;;;;;;5049501;28;20036;-56
2022/04/26 13:49:17;;;;;;;8.95;7.68;;;17.90;62.60;;;;;;5050949;28;20043;-58
2022/04/26 13:52:02;;;;;;;8.57;6.68;;;17.70;62.70;;;;;;5035598;28;20044;-63
2022/04/26 13:54:47;;;;;;;6.32;5.65;;;17.80;66.20;;;;;;5051014;28;20139;-60
2022/04/26 13:57:31;;;;;;;9.80;7.40;;;18.10;63.90;;;;;;5050946;28;20102;-61
2022/04/26 14:00:16;;;;;;;18.88;11.93;;;18.20;62.90;;;;;;5036293;28;20035;-59
2022/04/26 14:03:00;;;;;;;7.18;5.78;;;18.20;63.30;;;;;;5050857;28;20079;-56
2022/04/26 14:05:46;;;;;;;8.70;6.00;;;18.50;63.60;;;;;;5051167;28;20025;-55
2022/04/26 14:08:31;;;;;;;6.90;5.95;;;18.90;61.60;;;;;;5050968;28;20087;-59
2022/04/26 14:11:19;;;;;;;7.65;6.15;;;19.00;60.40;;;;;;5016523;28;20460;-60
2022/04/26 14:23:12;;;;;;;7.38;5.15;;;19.40;61.60;;;;;;5050620;28;20036;-58
2022/04/26 14:25:56;;;;;;;7.03;5.53;;;19.40;60.80;;;;;;5050414;28;20036;-56
2022/04/26 14:28:40;;;;;;;9.77;6.20;;;19.30;60.90;;;;;;5042464;28;20037;-61
2022/04/26 14:31:25;;;;;;;;;;;19.30;61.30;;;;;;5003207;28;20040;-57
2022/04/26 14:34:10;;;;;;;9.38;6.00;;;19.30;60.40;;;;;;5047819;28;20011;-56
2022/04/26 14:36:55;;;;;;;6.63;5.25;;;19.20;61.10;;;;;;5050117;28;20450;-55
2022/04/26 14:39:39;;;;;;;13.57;7.85;;;19.60;61.40;;;;;;5060827;28;20039;-56
2022/04/26 14:42:23;;;;;;;9.25;7.32;;;20.10;59.90;;;;;;5059454;28;20074;-58
2022/04/26 14:45:07;;;;;;;9.15;6.82;;;20.30;59.30;;;;;;5057615;28;20083;-55
2022/04/26 14:47:52;;;;;;;9.52;6.90;;;20.20;58.80;;;;;;5044954;28;20036;-55
2022/04/26 14:50:38;;;;;;;6.57;5.97;;;20.00;58.80;;;;;;5037780;28;20615;-52
2022/04/26 14:53:23;;;;;;;7.40;6.50;;;19.70;59.60;;;;;;5055820;28;20081;-64
2022/04/26 14:56:11;;;;;;;7.18;5.90;;;19.70;60.10;;;;;;5059904;28;20519;-63
2022/04/26 14:58:59;;;;;;;11.90;6.82;;;19.40;60.10;;;;;;5074855;28;20101;-61
2022/04/26 15:01:49;;;;;;;8.00;5.50;;;19.50;61.80;;;;;;5045480;28;20036;-63
2022/04/26 15:04:33;;;;;;;10.52;7.40;;;19.90;59.40;;;;;;5074142;28;20089;-62
2022/04/26 15:07:17;;;;;;;11.50;9.02;;;19.70;59.80;;;;;;5055259;28;20040;-59
2022/04/26 15:10:02;;;;;;;18.02;12.55;;;19.50;60.90;;;;;;5053446;28;20052;-57
2022/04/26 15:18:52;;;;;;;9.88;5.55;;;18.20;62.00;;;;;;5034423;28;20036;-60
2022/04/26 15:21:37;;;;;;;6.03;5.43;;;17.90;63.00;;;;;;5044201;28;20019;-56
2022/04/26 15:24:31;;;;;;;8.85;6.07;;;17.70;63.80;;;;;;5055081;28;20112;-59
2022/04/26 15:27:15;;;;;;;13.63;6.40;;;17.70;65.70;;;;;;5057410;28;20510;-57
2022/04/26 15:30:00;;;;;;;24.98;9.10;;;17.90;65.30;;;;;;5054946;28;20484;-57
2022/04/26 15:32:45;;;;;;;12.90;6.47;;;18.10;66.30;;;;;;5057589;28;20519;-59
2022/04/26 15:35:29;;;;;;;22.42;8.32;;;18.10;63.00;;;;;;5053512;28;20110;-58
2022/04/26 15:38:13;;;;;;;11.43;6.85;;;18.00;63.10;;;;;;5052336;28;20090;-60
2022/04/26 15:41:06;;;;;;;;;;;18.00;62.80;;;;;;5055535;28;20507;-58
2022/04/26 15:43:51;;;;;;;5.28;4.40;;;17.80;60.80;;;;;;5037493;28;20387;-60
2022/04/26 15:46:35;;;;;;;7.85;4.90;;;17.70;61.90;;;;;;5052835;28;20047;-61
2022/04/26 15:49:20;;;;;;;;;;;17.80;62.50;;;;;;5046940;28;20071;-58
2022/04/26 15:52:04;;;;;;;14.30;4.85;;;17.80;61.20;;;;;;5053378;28;19955;-60
2022/04/26 15:54:49;;;;;;;12.45;4.63;;;17.50;61.10;;;;;;5036983;28;20035;-60
2022/04/26 15:57:33;;;;;;;6.03;4.22;;;17.60;62.20;;;;;;5032888;28;20051;-59
2022/04/26 16:00:20;;;;;;;7.68;5.07;;;17.60;62.20;;;;;;5050647;28;20051;-59
2022/04/26 16:03:04;;;;;;;7.80;4.82;;;17.70;62.30;;;;;;5036923;28;20086;-60
2022/04/26 16:05:49;;;;;;;6.45;4.50;;;17.70;62.30;;;;;;5052506;28;20032;-62
2022/04/26 16:08:35;;;;;;;5.60;4.40;;;17.70;61.80;;;;;;5037615;28;20101;-60
2022/04/26 16:20:34;;;;;;;5.38;4.45;;;17.40;62.50;;;;;;5012799;28;20187;-57
2022/04/26 16:23:19;;;;;;;4.70;4.15;;;17.60;62.30;;;;;;5037396;28;20084;-57
2022/04/26 16:26:05;;;;;;;7.75;4.35;;;17.50;61.60;;;;;;5052501;28;20103;-59
2022/04/26 16:28:53;;;;;;;6.22;4.32;;;17.50;61.90;;;;;;5037243;28;20055;-59
2022/04/26 16:31:38;;;;;;;5.38;4.10;;;17.50;61.90;;;;;;5052687;28;20079;-61
2022/04/26 16:34:23;;;;;;;8.43;4.45;;;17.50;60.80;;;;;;5017190;28;20076;-56
2022/04/26 16:37:08;;;;;;;4.45;4.00;;;17.40;61.30;;;;;;5017654;28;20218;-59
2022/04/26 16:39:52;;;;;;;5.47;4.40;;;17.30;60.50;;;;;;5050206;28;20048;-59
2022/04/26 16:42:39;;;;;;;6.63;4.28;;;17.20;61.20;;;;;;5023663;28;20544;-60
2022/04/26 16:45:24;;;;;;;6.10;4.68;;;17.20;65.10;;;;;;5046255;28;20111;-61
2022/04/26 16:48:09;;;;;;;9.38;6.97;;;17.30;61.90;;;;;;5052208;28;20087;-62
2022/04/26 16:50:53;;;;;;;13.13;8.17;;;17.30;61.40;;;;;;5037240;28;20082;-61
2022/04/26 16:53:38;;;;;;;7.43;4.82;;;17.40;61.50;;;;;;5050580;28;20035;-62
2022/04/26 16:56:22;;;;;;;6.25;5.00;;;17.50;61.50;;;;;;5047800;28;20048;-61
2022/04/26 16:59:07;;;;;;;5.88;4.20;;;17.50;61.60;;;;;;5036768;28;20075;-59
2022/04/26 17:01:51;;;;;;;6.13;4.20;;;17.70;61.10;;;;;;5036544;28;20036;-61
2022/04/26 17:04:35;;;;;;;4.85;4.38;;;17.90;60.60;;;;;;5041540;28;20067;-59
2022/04/26 17:07:20;;;;;;;5.53;4.40;;;19.00;59.10;;;;;;5059030;28;20120;-61
2022/04/26 17:10:04;;;;;;;5.18;4.25;;;19.80;57.10;;;;;;5050273;28;20178;-61
2022/04/26 17:12:50;;;;;;;5.10;3.90;;;20.30;56.60;;;;;;5031969;28;20035;-59
2022/04/26 17:15:35;;;;;;;4.65;4.25;;;20.80;55.80;;;;;;5033584;28;20032;-59
2022/04/26 17:18:23;;;;;;;6.63;4.05;;;21.10;55.30;;;;;;5036598;28;20029;-61
2022/04/26 17:21:08;;;;;;;6.50;4.65;;;22.60;54.40;;;;;;5055840;28;20547;-61
2022/04/26 17:23:55;;;;;;;6.65;4.57;;;24.40;51.90;;;;;;5043173;28;20112;-61
2022/04/26 17:26:40;;;;;;;4.55;4.05;;;25.10;50.00;;;;;;5023650;28;20051;-60
2022/04/26 17:29:24;;;;;;;;;;;24.20;49.20;;;;;;5039514;28;20051;-60
2022/04/26 17:32:14;;;;;;;5.38;3.95;;;22.30;52.10;;;;;;5050373;28;19963;-59
2022/04/26 17:35:00;;;;;;;6.30;4.25;;;20.70;54.60;;;;;;5035983;28;20122;-60
2022/04/26 17:37:44;;;;;;;4.03;3.55;;;19.60;56.90;;;;;;5050371;28;20405;-60
2022/04/26 17:40:29;;;;;;;4.53;3.90;;;19.00;57.50;;;;;;5051540;28;20092;-60
2022/04/26 17:43:13;;;;;;;4.88;4.20;;;18.80;57.10;;;;;;5035760;28;20060;-61
2022/04/26 17:45:57;;;;;;;;;;;19.60;56.30;;;;;;5041598;28;20575;-58
2022/04/26 17:48:41;;;;;;;5.63;4.25;;;20.80;55.40;;;;;;5049434;28;19927;-59
2022/04/26 17:51:26;;;;;;;6.18;4.32;;;21.70;53.10;;;;;;5048364;28;20574;-61
2022/04/26 17:57:13;;;;;;;4.97;4.03;;;22.40;51.40;;;;;;5051777;28;19966;-61
2022/04/26 17:59:58;;;;;;;4.80;4.00;;;22.40;51.50;;;;;;5054252;28;20056;-61
2022/04/26 18:02:42;;;;;;;4.50;4.10;;;21.70;52.00;;;;;;5046496;28;20036;-61
2022/04/26 18:05:27;;;;;;;7.35;4.70;;;21.30;52.80;;;;;;5031809;28;20583;-63
2022/04/26 18:08:11;;;;;;;;;;;20.70;53.60;;;;;;5017272;28;20476;-63
2022/04/26 18:10:57;;;;;;;5.18;3.90;;;19.40;55.30;;;;;;5036307;28;20010;-62
2022/04/26 18:13:42;;;;;;;5.15;4.30;;;18.50;57.30;;;;;;5039699;28;20490;-62
2022/04/26 18:16:27;;;;;;;6.57;4.55;;;17.80;58.80;;;;;;5051281;28;20091;-59
2022/04/26 18:19:11;;;;;;;6.20;4.13;;;17.50;59.80;;;;;;5031425;28;20037;-62
2022/04/26 18:21:55;;;;;;;6.63;4.82;;;17.20;60.70;;;;;;5031412;28;20032;-62
2022/04/26 18:24:40;;;;;;;6.88;4.88;;;16.90;62.00;;;;;;5016287;28;20129;-60
2022/04/26 18:27:24;;;;;;;6.57;4.95;;;16.70;62.10;;;;;;5018285;28;20116;-58
2022/04/26 18:30:08;;;;;;;8.18;5.03;;;16.50;62.60;;;;;;5045882;28;20405;-60
2022/04/26 18:32:52;;;;;;;5.57;4.28;;;16.30;63.00;;;;;;5055375;28;20099;-60
2022/04/26 18:35:36;;;;;;;7.90;5.40;;;16.20;63.60;;;;;;5039278;28;20043;-56
2022/04/26 18:38:21;;;;;;;7.93;5.32;;;16.10;64.30;;;;;;5054302;28;20160;-58